Time;durP1;ratioP1;P1;durP2;ratioP2;P2;SDS_P1;SDS_P2;PMS_P1;PMS_P2;Temp;Humidity;BMP_temperature;BMP_pressure;BME280_temperature;BME280_humidity;BME280_pressure;Samples;Min_cycle;Max_cycle;Signal;HPM_P1;HPM_P2
2024/02/25 00:00:33;;;;;;;5.35;2.70;;;;;;;;;;4994051;28;20350;-56
2024/02/25 00:03:21;;;;;;;3.63;2.40;;;;;;;;;;4995635;28;20046;-53
2024/02/25 00:06:14;;;;;;;9.27;3.75;;;;;;;;;;4995993;28;20064;-64
2024/02/25 00:09:09;;;;;;;9.38;3.08;;;;;;;;;;4993396;28;20058;-63
2024/02/25 00:11:56;;;;;;;6.60;2.90;;;;;;;;;;4997483;28;20085;-62
2024/02/25 00:14:51;;;;;;;6.35;3.47;;;;;;;;;;5001271;28;20060;-62
2024/02/25 00:17:45;;;;;;;7.10;3.00;;;;;;;;;;4987233;28;20062;-54
2024/02/25 00:20:18;;;;;;;7.97;3.17;;;;;;;;;;4999008;28;20133;-65
2024/02/25 00:23:12;;;;;;;6.07;3.28;;;;;;;;;;4997169;28;20512;-63
2024/02/25 00:25:59;;;;;;;8.52;3.45;;;;;;;;;;4994546;28;20046;-62
2024/02/25 00:28:53;;;;;;;6.82;3.40;;;;;;;;;;4998674;28;20058;-63
2024/02/25 00:31:40;;;;;;;7.18;3.80;;;;;;;;;;4993042;28;20057;-63
2024/02/25 00:34:34;;;;;;;12.73;3.90;;;;;;;;;;4994436;28;20054;-60
2024/02/25 00:37:22;;;;;;;8.38;4.30;;;;;;;;;;4995643;28;20058;-59
2024/02/25 00:40:16;;;;;;;6.43;4.20;;;;;;;;;;4996990;28;20508;-60
2024/02/25 00:43:22;;;;;;;8.43;4.25;;;;;;;;;;4995510;28;20132;-60
2024/02/25 00:46:15;;;;;;;11.18;5.03;;;;;;;;;;4995757;28;20115;-60
2024/02/25 00:49:02;;;;;;;12.10;4.28;;;;;;;;;;4994600;28;20669;-56
2024/02/25 00:51:56;;;;;;;11.45;5.00;;;;;;;;;;4992035;28;21205;-57
2024/02/25 00:54:45;;;;;;;12.50;4.90;;;;;;;;;;4993345;28;20192;-56
2024/02/25 00:57:39;;;;;;;7.75;4.60;;;;;;;;;;4992512;28;20544;-54
2024/02/25 01:00:24;;;;;;;10.13;5.13;;;;;;;;;;4998302;28;20147;-54
2024/02/25 01:03:18;;;;;;;8.75;4.60;;;;;;;;;;4994496;28;20068;-51
2024/02/25 01:06:05;;;;;;;15.95;4.43;;;;;;;;;;4993463;28;20050;-50
2024/02/25 01:08:59;;;;;;;8.70;4.53;;;;;;;;;;4992328;28;20057;-54
2024/02/25 01:11:47;;;;;;;9.45;4.53;;;;;;;;;;4995481;28;20317;-56
2024/02/25 01:14:41;;;;;;;14.50;5.93;;;;;;;;;;4993505;28;20059;-65
2024/02/25 01:17:34;;;;;;;17.13;4.82;;;;;;;;;;4993454;28;20060;-46
2024/02/25 01:20:33;;;;;;;12.30;5.13;;;;;;;;;;4996391;28;20055;-47
2024/02/25 01:23:20;;;;;;;12.38;6.10;;;;;;;;;;4986697;28;20050;-50
2024/02/25 01:26:14;;;;;;;11.65;5.90;;;;;;;;;;4995912;28;20864;-50
2024/02/25 01:29:01;;;;;;;13.73;6.40;;;;;;;;;;4995842;28;20429;-46
2024/02/25 01:31:56;;;;;;;13.90;5.05;;;;;;;;;;4993858;28;20054;-58
2024/02/25 01:34:43;;;;;;;13.90;6.05;;;;;;;;;;4990037;28;20196;-60
2024/02/25 01:37:36;;;;;;;11.80;5.75;;;;;;;;;;4995312;28;20050;-57
2024/02/25 01:40:24;;;;;;;16.38;6.30;;;;;;;;;;4997252;28;20524;-60
2024/02/25 01:43:18;;;;;;;12.68;6.72;;;;;;;;;;4998094;28;20088;-62
2024/02/25 01:46:06;;;;;;;14.05;6.43;;;;;;;;;;4996413;28;20682;-49
2024/02/25 01:48:59;;;;;;;14.98;6.40;;;;;;;;;;4988937;28;20046;-47
2024/02/25 01:51:48;;;;;;;15.60;7.22;;;;;;;;;;4986403;28;20145;-51
2024/02/25 01:54:42;;;;;;;16.27;6.68;;;;;;;;;;4994239;28;20078;-47
2024/02/25 01:57:29;;;;;;;18.65;6.78;;;;;;;;;;4995384;28;20430;-49
2024/02/25 02:00:23;;;;;;;17.63;7.72;;;;;;;;;;4997033;28;20674;-65
2024/02/25 02:03:17;;;;;;;18.42;7.68;;;;;;;;;;4993583;28;20051;-64
2024/02/25 02:06:05;;;;;;;12.15;7.35;;;;;;;;;;4990980;28;20057;-66
2024/02/25 02:08:59;;;;;;;19.20;7.93;;;;;;;;;;4995167;28;20759;-65
2024/02/25 02:11:56;;;;;;;20.92;8.02;;;;;;;;;;4995555;28;20046;-49
2024/02/25 02:14:51;;;;;;;20.60;8.80;;;;;;;;;;4992977;28;20422;-58
2024/02/25 02:17:44;;;;;;;19.48;8.43;;;;;;;;;;4989391;28;20094;-56
2024/02/25 02:20:39;;;;;;;19.08;8.48;;;;;;;;;;4994315;28;20054;-56
2024/02/25 02:23:26;;;;;;;32.78;11.00;;;;;;;;;;4993478;28;20050;-58
2024/02/25 02:26:20;;;;;;;17.77;8.70;;;;;;;;;;4994053;28;20058;-58
2024/02/25 02:29:14;;;;;;;20.55;10.35;;;;;;;;;;4990545;28;20061;-63
2024/02/25 02:32:08;;;;;;;20.63;9.38;;;;;;;;;;4995755;28;20065;-63
2024/02/25 02:34:56;;;;;;;22.13;9.60;;;;;;;;;;4992035;28;20078;-63
2024/02/25 02:37:49;;;;;;;24.20;11.45;;;;;;;;;;4994263;28;20152;-63
2024/02/25 02:40:37;;;;;;;24.10;10.35;;;;;;;;;;4991679;28;20089;-53
2024/02/25 02:43:30;;;;;;;16.58;8.77;;;;;;;;;;4992991;28;20080;-60
2024/02/25 02:46:18;;;;;;;15.90;7.78;;;;;;;;;;4994586;28;20100;-60
2024/02/25 02:49:11;;;;;;;17.52;7.35;;;;;;;;;;4988171;28;23711;-59
2024/02/25 02:51:59;;;;;;;15.50;6.32;;;;;;;;;;4991775;28;20718;-59
2024/02/25 02:54:52;;;;;;;14.52;6.40;;;;;;;;;;4994109;28;20407;-59
2024/02/25 02:57:39;;;;;;;9.80;4.63;;;;;;;;;;4988652;28;20062;-59
2024/02/25 03:00:34;;;;;;;7.15;4.25;;;;;;;;;;4992090;28;20062;-49
2024/02/25 03:03:21;;;;;;;8.07;4.20;;;;;;;;;;4993728;28;20528;-53
2024/02/25 03:06:14;;;;;;;5.45;3.58;;;;;;;;;;4994413;28;20062;-52
2024/02/25 03:09:02;;;;;;;5.00;2.50;;;;;;;;;;4994062;28;20060;-50
2024/02/25 03:11:55;;;;;;;9.13;3.10;;;;;;;;;;4991864;28;20108;-50
2024/02/25 03:14:43;;;;;;;5.63;2.90;;;;;;;;;;4992159;28;20141;-64
2024/02/25 03:17:44;;;;;;;4.95;2.65;;;;;;;;;;4983203;28;20050;-63
2024/02/25 03:20:30;;;;;;;7.95;3.33;;;;;;;;;;4995255;28;20073;-64
2024/02/25 03:23:25;;;;;;;2.50;2.17;;;;;;;;;;4992400;28;20086;-67
2024/02/25 03:26:16;;;;;;;3.22;2.17;;;;;;;;;;4994259;28;20054;-60
2024/02/25 03:29:09;;;;;;;5.07;2.28;;;;;;;;;;4987952;28;20068;-63
2024/02/25 03:31:57;;;;;;;3.00;2.00;;;;;;;;;;4983008;28;20049;-62
2024/02/25 03:34:51;;;;;;;3.03;2.10;;;;;;;;;;4990457;28;20949;-63
2024/02/25 03:37:39;;;;;;;3.03;2.20;;;;;;;;;;4993543;28;20464;-63
2024/02/25 03:40:32;;;;;;;5.35;2.20;;;;;;;;;;4992534;28;20086;-64
2024/02/25 03:43:20;;;;;;;3.42;2.28;;;;;;;;;;4991743;28;20062;-60
2024/02/25 03:46:13;;;;;;;4.20;2.22;;;;;;;;;;4991762;28;20085;-59
2024/02/25 03:49:07;;;;;;;4.18;2.13;;;;;;;;;;4987942;28;20196;-59
2024/02/25 03:52:00;;;;;;;2.90;2.00;;;;;;;;;;4989738;28;20046;-59
2024/02/25 03:54:54;;;;;;;3.10;2.35;;;;;;;;;;4991827;28;20058;-62
2024/02/25 03:57:42;;;;;;;4.90;2.00;;;;;;;;;;4989376;28;20061;-66
2024/02/25 04:00:35;;;;;;;2.88;1.90;;;;;;;;;;4990514;28;20064;-66
2024/02/25 04:03:23;;;;;;;3.75;1.67;;;;;;;;;;4987792;28;20487;-67
2024/02/25 04:06:16;;;;;;;2.60;1.73;;;;;;;;;;4992220;28;20152;-65
2024/02/25 04:09:04;;;;;;;3.42;1.30;;;;;;;;;;4993525;28;20061;-66
2024/02/25 04:11:57;;;;;;;3.83;1.90;;;;;;;;;;4993984;28;20053;-62
2024/02/25 04:14:45;;;;;;;3.35;1.60;;;;;;;;;;4993691;28;20069;-63
2024/02/25 04:17:45;;;;;;;1.25;1.00;;;;;;;;;;4989633;28;20061;-62
2024/02/25 04:20:39;;;;;;;2.95;1.30;;;;;;;;;;4991153;28;20465;-63
2024/02/25 04:23:32;;;;;;;2.35;1.30;;;;;;;;;;4993588;28;20414;-66
2024/02/25 04:26:20;;;;;;;2.97;1.30;;;;;;;;;;4993193;28;20116;-48
2024/02/25 04:29:13;;;;;;;1.67;1.20;;;;;;;;;;4991763;28;20063;-48
2024/02/25 04:32:01;;;;;;;1.50;1.13;;;;;;;;;;4993347;28;20522;-47
2024/02/25 04:34:55;;;;;;;2.40;1.20;;;;;;;;;;4991095;28;20050;-47
2024/02/25 04:37:43;;;;;;;1.45;1.02;;;;;;;;;;4991511;28;20529;-49
2024/02/25 04:40:41;;;;;;;4.15;0.90;;;;;;;;;;4992567;28;20078;-58
2024/02/25 04:43:28;;;;;;;2.25;1.27;;;;;;;;;;4991076;28;20054;-57
2024/02/25 04:46:22;;;;;;;1.27;1.17;;;;;;;;;;4993942;28;20494;-59
2024/02/25 04:49:16;;;;;;;1.63;1.50;;;;;;;;;;4995100;28;20303;-60
2024/02/25 04:52:11;;;;;;;1.73;1.40;;;;;;;;;;4995002;28;20080;-65
2024/02/25 04:54:58;;;;;;;3.05;1.60;;;;;;;;;;5001590;28;20138;-53
2024/02/25 04:57:51;;;;;;;2.42;1.70;;;;;;;;;;4996202;28;20062;-58
2024/02/25 05:00:39;;;;;;;3.70;2.38;;;;;;;;;;4993259;28;20061;-56
2024/02/25 05:03:32;;;;;;;6.55;2.50;;;;;;;;;;4996393;28;20057;-58
2024/02/25 05:06:20;;;;;;;5.25;2.75;;;;;;;;;;4998125;28;20061;-58
2024/02/25 05:09:13;;;;;;;7.70;2.72;;;;;;;;;;4994391;28;20108;-63
2024/02/25 05:12:00;;;;;;;4.20;2.85;;;;;;;;;;4992779;28;20101;-64
2024/02/25 05:14:54;;;;;;;7.28;2.80;;;;;;;;;;4994662;28;20058;-64
2024/02/25 05:17:48;;;;;;;8.07;2.90;;;;;;;;;;4992721;28;20058;-64
2024/02/25 05:20:49;;;;;;;6.07;3.10;;;;;;;;;;4993072;28;20054;-65
2024/02/25 05:23:36;;;;;;;6.28;3.58;;;;;;;;;;4991273;28;20057;-64
2024/02/25 05:26:30;;;;;;;4.50;3.30;;;;;;;;;;4993712;28;20054;-65
2024/02/25 05:29:18;;;;;;;12.93;3.95;;;;;;;;;;4993654;28;20068;-65
2024/02/25 05:32:12;;;;;;;11.55;4.60;;;;;;;;;;4994762;28;20153;-65
2024/02/25 05:35:00;;;;;;;9.43;4.20;;;;;;;;;;4993531;28;20185;-64
2024/02/25 05:37:52;;;;;;;13.55;4.80;;;;;;;;;;4995887;28;20506;-48
2024/02/25 05:40:41;;;;;;;14.52;5.38;;;;;;;;;;4993812;28;20413;-53
2024/02/25 05:43:33;;;;;;;11.57;5.13;;;;;;;;;;4993340;28;20165;-54
2024/02/25 05:46:21;;;;;;;15.30;4.45;;;;;;;;;;4994496;28;20061;-53
2024/02/25 05:49:14;;;;;;;8.70;4.88;;;;;;;;;;4993465;28;20050;-64
2024/02/25 05:52:02;;;;;;;8.73;4.22;;;;;;;;;;4997201;28;20538;-63
2024/02/25 05:54:56;;;;;;;15.32;5.35;;;;;;;;;;4987181;28;20544;-63
2024/02/25 05:57:43;;;;;;;15.65;5.70;;;;;;;;;;4995061;28;20065;-64
2024/02/25 06:00:36;;;;;;;20.83;6.28;;;;;;;;;;4992224;28;20766;-62
2024/02/25 06:03:25;;;;;;;11.75;6.13;;;;;;;;;;4994307;28;20042;-63
2024/02/25 06:06:17;;;;;;;17.17;7.35;;;;;;;;;;4993411;28;20053;-50
2024/02/25 06:09:06;;;;;;;12.13;5.97;;;;;;;;;;4996330;28;20135;-49
2024/02/25 06:11:58;;;;;;;18.63;7.38;;;;;;;;;;4993978;28;20124;-50
2024/02/25 06:14:46;;;;;;;15.57;8.35;;;;;;;;;;4993601;28;20498;-52
2024/02/25 06:17:47;;;;;;;20.52;8.57;;;;;;;;;;4993735;28;20604;-47
2024/02/25 06:20:35;;;;;;;25.13;8.70;;;;;;;;;;4993179;28;20049;-52
2024/02/25 06:23:28;;;;;;;19.13;9.00;;;;;;;;;;4997766;28;20050;-48
2024/02/25 06:26:16;;;;;;;23.35;8.80;;;;;;;;;;4994469;28;20050;-53
2024/02/25 06:29:09;;;;;;;20.60;10.27;;;;;;;;;;4997257;28;20533;-53
2024/02/25 06:31:57;;;;;;;21.38;10.57;;;;;;;;;;4998419;28;20181;-50
2024/02/25 06:34:51;;;;;;;23.48;10.13;;;;;;;;;;4995542;28;20065;-59
2024/02/25 06:37:38;;;;;;;22.48;10.30;;;;;;;;;;4994797;28;20100;-61
2024/02/25 06:40:31;;;;;;;24.83;9.70;;;;;;;;;;4994923;28;20058;-62
2024/02/25 06:43:18;;;;;;;25.85;11.10;;;;;;;;;;4994230;28;20054;-62
2024/02/25 06:46:12;;;;;;;23.40;11.13;;;;;;;;;;4996111;28;20501;-60
2024/02/25 06:49:00;;;;;;;26.27;12.85;;;;;;;;;;4989748;28;20050;-58
2024/02/25 06:51:56;;;;;;;23.45;11.82;;;;;;;;;;4993119;28;20141;-62
2024/02/25 06:54:44;;;;;;;26.73;12.30;;;;;;;;;;4997012;28;20057;-50
2024/02/25 06:57:37;;;;;;;22.67;12.45;;;;;;;;;;4989047;28;20124;-53
2024/02/25 07:00:25;;;;;;;23.15;11.93;;;;;;;;;;4992631;28;20054;-55
2024/02/25 07:03:18;;;;;;;33.92;13.70;;;;;;;;;;4994450;28;20085;-53
2024/02/25 07:06:08;;;;;;;27.08;13.30;;;;;;;;;;4995679;28;20060;-57
2024/02/25 07:09:03;;;;;;;26.58;14.10;;;;;;;;;;4986062;28;20387;-57
2024/02/25 07:11:56;;;;;;;27.83;14.18;;;;;;;;;;4990178;28;20091;-67
2024/02/25 07:14:44;;;;;;;28.48;14.43;;;;;;;;;;4977644;28;20057;-59
2024/02/25 07:17:56;;;;;;;31.77;15.18;;;;;;;;;;4991828;28;20535;-60
2024/02/25 07:20:50;;;;;;;34.15;15.90;;;;;;;;;;4980036;28;20046;-57
2024/02/25 07:23:44;;;;;;;34.47;17.10;;;;;;;;;;4992810;28;20505;-61
2024/02/25 07:26:32;;;;;;;32.38;16.85;;;;;;;;;;4989917;28;20054;-59
2024/02/25 07:29:25;;;;;;;29.17;16.20;;;;;;;;;;4994201;28;20065;-63
2024/02/25 07:32:13;;;;;;;42.55;18.92;;;;;;;;;;4990167;28;20545;-56
2024/02/25 07:35:07;;;;;;;32.00;16.65;;;;;;;;;;4994045;28;20046;-54
2024/02/25 07:37:54;;;;;;;42.33;16.90;;;;;;;;;;4993276;28;20054;-53
2024/02/25 07:40:48;;;;;;;39.20;16.83;;;;;;;;;;4994648;28;20054;-52
2024/02/25 07:43:42;;;;;;;36.33;16.75;;;;;;;;;;4988136;28;21656;-55
2024/02/25 07:46:30;;;;;;;34.78;17.15;;;;;;;;;;4993840;28;20061;-56
2024/02/25 07:49:23;;;;;;;37.75;18.67;;;;;;;;;;4991956;28;20057;-62
2024/02/25 07:52:11;;;;;;;33.40;16.35;;;;;;;;;;4993180;28;20054;-51
2024/02/25 07:55:05;;;;;;;37.63;17.27;;;;;;;;;;4987941;28;20050;-53
2024/02/25 07:57:52;;;;;;;44.05;19.95;;;;;;;;;;4990069;28;20061;-58
2024/02/25 08:00:45;;;;;;;37.08;18.80;;;;;;;;;;4992885;28;20064;-55
2024/02/25 08:03:32;;;;;;;38.65;18.95;;;;;;;;;;4994094;28;20107;-58
2024/02/25 08:06:28;;;;;;;43.22;17.95;;;;;;;;;;4994161;28;20053;-62
2024/02/25 08:09:14;;;;;;;39.00;18.33;;;;;;;;;;4993098;28;20065;-62
2024/02/25 08:12:08;;;;;;;44.88;22.17;;;;;;;;;;4980665;28;20097;-61
2024/02/25 08:14:57;;;;;;;38.70;21.25;;;;;;;;;;4995388;28;20050;-62
2024/02/25 08:17:56;;;;;;;36.20;18.02;;;;;;;;;;4987811;28;20057;-61
2024/02/25 08:20:43;;;;;;;35.58;19.85;;;;;;;;;;4990872;28;20142;-63
2024/02/25 08:23:37;;;;;;;42.22;22.02;;;;;;;;;;4993169;28;20058;-62
2024/02/25 08:26:25;;;;;;;32.70;20.95;;;;;;;;;;4991270;28;20058;-58
2024/02/25 08:29:18;;;;;;;40.60;20.85;;;;;;;;;;4997449;28;20058;-65
2024/02/25 08:32:06;;;;;;;39.22;21.48;;;;;;;;;;4993892;28;20512;-65
2024/02/25 08:34:59;;;;;;;31.83;17.60;;;;;;;;;;4997203;28;20057;-65
2024/02/25 08:37:47;;;;;;;32.65;16.98;;;;;;;;;;4998227;28;20050;-66
2024/02/25 08:40:40;;;;;;;32.30;16.17;;;;;;;;;;4996392;28;20662;-65
2024/02/25 08:43:27;;;;;;;28.40;15.15;;;;;;;;;;4999524;28;20109;-56
2024/02/25 08:46:21;;;;;;;29.42;14.80;;;;;;;;;;4998759;28;20143;-52
2024/02/25 08:49:09;;;;;;;28.00;13.00;;;;;;;;;;4993051;28;20050;-54
2024/02/25 08:52:02;;;;;;;28.30;13.43;;;;;;;;;;4998438;28;20053;-59
2024/02/25 08:54:50;;;;;;;21.92;10.55;;;;;;;;;;4989816;28;20113;-54
2024/02/25 08:57:43;;;;;;;17.15;9.18;;;;;;;;;;4995475;28;20058;-56
2024/02/25 09:00:37;;;;;;;16.90;8.27;;;;;;;;;;4997539;28;20124;-50
2024/02/25 09:03:32;;;;;;;18.08;8.48;;;;;;;;;;4990973;28;20061;-60
2024/02/25 09:06:22;;;;;;;13.13;8.38;;;;;;;;;;4993034;28;20046;-58
2024/02/25 09:09:15;;;;;;;11.15;7.80;;;;;;;;;;4994211;28;20065;-60
2024/02/25 09:12:03;;;;;;;9.48;4.70;;;;;;;;;;4996259;28;20041;-60
2024/02/25 09:14:56;;;;;;;5.20;3.33;;;;;;;;;;4996831;28;20054;-56
2024/02/25 09:17:54;;;;;;;4.63;3.70;;;;;;;;;;4991516;28;20128;-59
2024/02/25 09:20:45;;;;;;;3.13;2.30;;;;;;;;;;4999044;28;20553;-58
2024/02/25 09:23:32;;;;;;;2.70;2.50;;;;;;;;;;4996872;28;20061;-57
2024/02/25 09:26:25;;;;;;;4.35;2.47;;;;;;;;;;5000486;28;20426;-59
2024/02/25 09:29:13;;;;;;;1.58;1.10;;;;;;;;;;4996850;28;20092;-55
2024/02/25 09:32:06;;;;;;;2.28;1.05;;;;;;;;;;4990981;28;20058;-58
2024/02/25 09:35:00;;;;;;;1.70;1.15;;;;;;;;;;4998235;28;20056;-58
2024/02/25 09:37:55;;;;;;;1.67;1.05;;;;;;;;;;4997714;28;20742;-61
2024/02/25 09:40:43;;;;;;;1.30;0.70;;;;;;;;;;4995734;28;20904;-55
2024/02/25 09:43:37;;;;;;;2.47;0.60;;;;;;;;;;4993478;28;20104;-51
2024/02/25 09:46:24;;;;;;;0.90;0.80;;;;;;;;;;4981208;28;20057;-48
2024/02/25 09:49:26;;;;;;;2.33;0.60;;;;;;;;;;4990711;28;20053;-50
2024/02/25 09:52:17;;;;;;;35.10;22.95;;;;;;;;;;4995342;28;20155;-49
2024/02/25 09:55:11;;;;;;;3.75;2.88;;;;;;;;;;4999214;28;20065;-49
2024/02/25 09:57:58;;;;;;;2.08;1.88;;;;;;;;;;4989020;28;20068;-47
2024/02/25 10:00:51;;;;;;;3.00;1.83;;;;;;;;;;4994003;28;20050;-56
2024/02/25 10:03:39;;;;;;;2.00;1.35;;;;;;;;;;4992816;28;20057;-59
2024/02/25 10:06:38;;;;;;;2.53;1.02;;;;;;;;;;4992611;28;20058;-58
2024/02/25 10:09:30;;;;;;;1.95;1.08;;;;;;;;;;4991812;28;20050;-57
2024/02/25 10:12:23;;;;;;;2.40;1.10;;;;;;;;;;4989586;28;20061;-58
2024/02/25 10:15:13;;;;;;;2.97;1.17;;;;;;;;;;4993692;28;20149;-64
2024/02/25 10:18:13;;;;;;;2.75;1.20;;;;;;;;;;4984369;28;20054;-56
2024/02/25 10:21:07;;;;;;;1.23;1.13;;;;;;;;;;4992742;28;20076;-57
2024/02/25 10:24:00;;;;;;;2.65;1.35;;;;;;;;;;4990177;28;20054;-59
2024/02/25 10:26:58;;;;;;;5.35;1.10;;;;;;;;;;4980651;28;21459;-59
2024/02/25 10:29:56;;;;;;;4.05;1.20;;;;;;;;;;4992458;28;20730;-60
2024/02/25 10:32:44;;;;;;;2.58;1.50;;;;;;;;;;4979465;28;20061;-61
2024/02/25 10:35:52;;;;;;;6.35;1.98;;;;;;;;;;4990955;28;20058;-51
2024/02/25 10:38:40;;;;;;;4.13;2.33;;;;;;;;;;4980903;28;20054;-61
2024/02/25 10:41:35;;;;;;;8.60;2.95;;;;;;;;;;4991450;28;20082;-61
2024/02/25 10:44:25;;;;;;;6.97;2.75;;;;;;;;;;4991719;28;20234;-62
2024/02/25 10:47:20;;;;;;;9.73;3.90;;;;;;;;;;4994237;28;20057;-60
2024/02/25 10:50:13;;;;;;;7.53;3.13;;;;;;;;;;4995424;28;20053;-63
2024/02/25 10:53:10;;;;;;;10.68;2.55;;;;;;;;;;4994569;28;20096;-50
2024/02/25 10:55:58;;;;;;;6.30;2.83;;;;;;;;;;4992698;28;20045;-57
2024/02/25 10:58:56;;;;;;;5.13;2.80;;;;;;;;;;4995408;28;20632;-60
2024/02/25 11:01:44;;;;;;;6.47;2.88;;;;;;;;;;4988174;28;20120;-61
2024/02/25 11:04:38;;;;;;;4.38;2.85;;;;;;;;;;4995218;28;20054;-55
2024/02/25 11:07:25;;;;;;;6.00;2.78;;;;;;;;;;4989069;28;20635;-59
2024/02/25 11:10:20;;;;;;;4.30;2.90;;;;;;;;;;4991677;28;20065;-67
2024/02/25 11:13:22;;;;;;;3.42;2.60;;;;;;;;;;4991781;28;20524;-67
2024/02/25 11:16:09;;;;;;;5.63;2.95;;;;;;;;;;4993614;28;20111;-68
2024/02/25 11:19:23;;;;;;;9.43;3.08;;;;;;;;;;4990772;28;20053;-67
2024/02/25 11:22:11;;;;;;;7.47;2.72;;;;;;;;;;4992532;28;20144;-68
2024/02/25 11:25:04;;;;;;;6.63;2.85;;;;;;;;;;4992932;28;20057;-67
2024/02/25 11:28:01;;;;;;;6.38;2.78;;;;;;;;;;4989776;28;20116;-63
2024/02/25 11:30:55;;;;;;;9.20;2.80;;;;;;;;;;4988023;28;20420;-61
2024/02/25 11:33:43;;;;;;;6.25;2.90;;;;;;;;;;4996797;28;20445;-65
2024/02/25 11:36:42;;;;;;;5.32;2.78;;;;;;;;;;4988177;28;20082;-62
2024/02/25 11:39:29;;;;;;;5.53;2.78;;;;;;;;;;4994418;28;20053;-63
2024/02/25 11:42:24;;;;;;;9.25;2.90;;;;;;;;;;4990384;28;20477;-63
2024/02/25 11:45:12;;;;;;;8.13;3.30;;;;;;;;;;4992023;28;20058;-63
2024/02/25 11:48:05;;;;;;;7.30;3.28;;;;;;;;;;4992604;28;20096;-52
2024/02/25 11:50:54;;;;;;;6.53;3.72;;;;;;;;;;4990871;28;20055;-61
2024/02/25 11:53:51;;;;;;;6.88;3.63;;;;;;;;;;4991961;28;20054;-61
2024/02/25 11:56:38;;;;;;;8.57;4.00;;;;;;;;;;4996543;28;20053;-61
2024/02/25 11:59:32;;;;;;;12.00;4.00;;;;;;;;;;4999086;28;20108;-61
2024/02/25 12:02:19;;;;;;;9.02;4.35;;;;;;;;;;4998195;28;20074;-61
2024/02/25 12:05:13;;;;;;;12.43;5.03;;;;;;;;;;4997296;28;20418;-53
2024/02/25 12:08:01;;;;;;;10.48;4.28;;;;;;;;;;4999647;28;20058;-58
2024/02/25 12:10:54;;;;;;;7.75;4.35;;;;;;;;;;4998337;28;20124;-57
2024/02/25 12:13:45;;;;;;;11.40;5.30;;;;;;;;;;4999797;28;20081;-58
2024/02/25 12:16:39;;;;;;;15.07;5.22;;;;;;;;;;4996847;28;20054;-58
2024/02/25 12:19:33;;;;;;;10.15;4.68;;;;;;;;;;4998049;28;20387;-59
2024/02/25 12:22:26;;;;;;;9.75;5.18;;;;;;;;;;4996405;28;20112;-59
2024/02/25 12:25:17;;;;;;;19.73;9.13;;;;;;;;;;4997148;28;20051;-62
2024/02/25 12:28:12;;;;;;;15.00;8.20;;;;;;;;;;4998215;28;20112;-59
2024/02/25 12:31:05;;;;;;;20.50;10.25;;;;;;;;;;4996262;28;20061;-57
2024/02/25 12:33:53;;;;;;;23.60;11.80;;;;;;;;;;4995567;28;20057;-58
2024/02/25 12:36:47;;;;;;;28.73;13.20;;;;;;;;;;4996715;28;20806;-58
2024/02/25 12:39:42;;;;;;;25.63;12.73;;;;;;;;;;4997092;28;20140;-58
2024/02/25 12:42:29;;;;;;;27.80;13.75;;;;;;;;;;4999537;28;20453;-58
2024/02/25 12:45:23;;;;;;;29.08;14.43;;;;;;;;;;4998289;28;20796;-63
2024/02/25 12:48:10;;;;;;;27.33;13.25;;;;;;;;;;4997226;28;20054;-63
2024/02/25 12:51:04;;;;;;;30.58;12.80;;;;;;;;;;4995022;28;20061;-64
2024/02/25 12:53:51;;;;;;;26.80;13.65;;;;;;;;;;4995823;28;20049;-63
2024/02/25 12:56:45;;;;;;;25.25;13.35;;;;;;;;;;4995551;28;20104;-63
2024/02/25 12:59:33;;;;;;;20.33;11.60;;;;;;;;;;4998620;28;20048;-63
2024/02/25 13:02:27;;;;;;;29.60;12.73;;;;;;;;;;4996944;28;20064;-63
2024/02/25 13:05:14;;;;;;;21.35;11.38;;;;;;;;;;4995472;28;20050;-63
2024/02/25 13:08:08;;;;;;;23.33;11.15;;;;;;;;;;4992657;28;20477;-63
2024/02/25 13:10:55;;;;;;;31.52;12.38;;;;;;;;;;4996055;28;20085;-63
2024/02/25 13:13:49;;;;;;;19.88;11.30;;;;;;;;;;4998564;28;20061;-63
2024/02/25 13:16:37;;;;;;;26.42;10.57;;;;;;;;;;4993866;28;20568;-62
2024/02/25 13:19:37;;;;;;;22.80;9.65;;;;;;;;;;4993917;28;20062;-64
2024/02/25 13:22:25;;;;;;;22.48;9.73;;;;;;;;;;4998003;28;20174;-61
2024/02/25 13:25:18;;;;;;;18.40;8.68;;;;;;;;;;4997458;28;20058;-62
2024/02/25 13:28:07;;;;;;;21.35;10.40;;;;;;;;;;4996935;28;20054;-62
2024/02/25 13:31:00;;;;;;;21.55;10.40;;;;;;;;;;4996993;28;20060;-62
2024/02/25 13:33:48;;;;;;;19.33;8.75;;;;;;;;;;4994672;28;20046;-61
2024/02/25 13:36:42;;;;;;;25.08;10.75;;;;;;;;;;4991957;28;20050;-64
2024/02/25 13:39:30;;;;;;;22.70;9.70;;;;;;;;;;4998953;28;20042;-63
2024/02/25 13:42:22;;;;;;;24.58;9.50;;;;;;;;;;4996697;28;20050;-63
2024/02/25 13:45:10;;;;;;;22.38;10.55;;;;;;;;;;4994213;28;20074;-63
2024/02/25 13:48:04;;;;;;;18.38;9.82;;;;;;;;;;4993330;28;20057;-63
2024/02/25 13:50:52;;;;;;;21.33;9.77;;;;;;;;;;4996466;28;20412;-63
2024/02/25 13:53:45;;;;;;;21.35;9.05;;;;;;;;;;4986472;28;20057;-63
2024/02/25 13:56:33;;;;;;;19.65;9.25;;;;;;;;;;4994206;28;20289;-63
2024/02/25 13:59:27;;;;;;;17.55;9.20;;;;;;;;;;4995212;28;20051;-59
2024/02/25 14:02:14;;;;;;;31.50;10.30;;;;;;;;;;4989194;28;20121;-60
2024/02/25 14:05:08;;;;;;;21.23;9.40;;;;;;;;;;4992410;28;20545;-60
2024/02/25 14:07:55;;;;;;;20.52;9.65;;;;;;;;;;4992830;28;20064;-59
2024/02/25 14:10:50;;;;;;;21.13;9.63;;;;;;;;;;4995934;28;20875;-58
2024/02/25 14:13:36;;;;;;;16.02;7.53;;;;;;;;;;4991394;28;20050;-62
2024/02/25 14:16:30;;;;;;;18.23;8.38;;;;;;;;;;4992684;28;20655;-65
2024/02/25 14:19:23;;;;;;;15.50;8.48;;;;;;;;;;4993754;28;20053;-64
2024/02/25 14:22:17;;;;;;;22.00;8.82;;;;;;;;;;4990707;28;20516;-64
2024/02/25 14:25:07;;;;;;;17.38;8.10;;;;;;;;;;4985935;28;20061;-64
2024/02/25 14:28:01;;;;;;;18.40;8.02;;;;;;;;;;4991988;28;20477;-64
2024/02/25 14:30:55;;;;;;;20.63;8.77;;;;;;;;;;4987139;28;20137;-64
2024/02/25 14:33:48;;;;;;;19.13;7.90;;;;;;;;;;4992521;28;20061;-52
2024/02/25 14:36:43;;;;;;;16.95;8.30;;;;;;;;;;4995179;28;20184;-64
2024/02/25 14:39:36;;;;;;;17.77;8.40;;;;;;;;;;4991754;28;20109;-64
2024/02/25 14:42:24;;;;;;;17.77;8.95;;;;;;;;;;4989621;28;20410;-64
2024/02/25 14:45:17;;;;;;;18.08;9.07;;;;;;;;;;4987982;28;20901;-66
2024/02/25 14:48:05;;;;;;;20.95;9.13;;;;;;;;;;4994587;28;20101;-64
2024/02/25 14:50:59;;;;;;;19.67;9.60;;;;;;;;;;4990951;28;20046;-57
2024/02/25 14:53:46;;;;;;;19.90;9.40;;;;;;;;;;4992211;28;20436;-64
2024/02/25 14:56:42;;;;;;;20.58;9.27;;;;;;;;;;4990122;28;20053;-65
2024/02/25 14:59:29;;;;;;;16.05;8.75;;;;;;;;;;4993322;28;20429;-65
2024/02/25 15:02:25;;;;;;;16.20;8.77;;;;;;;;;;4992722;28;20529;-65
2024/02/25 15:05:11;;;;;;;19.95;10.43;;;;;;;;;;4990892;28;20791;-64
2024/02/25 15:08:05;;;;;;;19.58;10.48;;;;;;;;;;4987960;28;20136;-65
2024/02/25 15:10:59;;;;;;;19.95;9.20;;;;;;;;;;4990564;28;20054;-64
2024/02/25 15:13:49;;;;;;;21.92;9.57;;;;;;;;;;4987502;28;20046;-62
2024/02/25 15:16:42;;;;;;;20.25;10.00;;;;;;;;;;4990916;28;20115;-62
2024/02/25 15:19:38;;;;;;;26.33;9.68;;;;;;;;;;4986612;28;20169;-63
2024/02/25 15:22:31;;;;;;;15.80;9.32;;;;;;;;;;4985952;28;20082;-63
2024/02/25 15:25:24;;;;;;;18.48;9.48;;;;;;;;;;4983844;28;20050;-64
2024/02/25 15:28:12;;;;;;;18.42;10.43;;;;;;;;;;4992373;28;20057;-65
2024/02/25 15:31:07;;;;;;;24.52;9.30;;;;;;;;;;4988642;28;20583;-58
2024/02/25 15:33:53;;;;;;;19.52;8.75;;;;;;;;;;4970882;28;20116;-58
2024/02/25 15:36:51;;;;;;;17.27;9.50;;;;;;;;;;4981142;28;20157;-58
2024/02/25 15:39:40;;;;;;;17.73;8.85;;;;;;;;;;4988300;28;20054;-59
2024/02/25 15:42:33;;;;;;;18.52;9.15;;;;;;;;;;4988845;28;20054;-58
2024/02/25 15:45:20;;;;;;;18.67;8.95;;;;;;;;;;4991162;28;20078;-62
2024/02/25 15:48:13;;;;;;;14.77;8.98;;;;;;;;;;4987519;28;20054;-50
2024/02/25 15:51:01;;;;;;;17.48;9.18;;;;;;;;;;4988887;28;20058;-62
2024/02/25 15:53:54;;;;;;;19.30;9.02;;;;;;;;;;4986246;28;20054;-61
2024/02/25 15:56:42;;;;;;;19.75;8.82;;;;;;;;;;4990106;28;20066;-62
2024/02/25 15:59:36;;;;;;;19.60;9.02;;;;;;;;;;4987024;28;20514;-62
2024/02/25 16:02:23;;;;;;;19.85;9.65;;;;;;;;;;4990683;28;20080;-62
2024/02/25 16:05:17;;;;;;;17.95;8.70;;;;;;;;;;4990889;28;20053;-62
2024/02/25 16:08:05;;;;;;;32.00;10.05;;;;;;;;;;4986350;28;20101;-57
2024/02/25 16:10:57;;;;;;;20.42;9.10;;;;;;;;;;4984476;28;20057;-55
2024/02/25 16:13:45;;;;;;;18.23;9.07;;;;;;;;;;4987060;28;20149;-58
2024/02/25 16:16:38;;;;;;;24.60;9.02;;;;;;;;;;4987167;28;20054;-57
2024/02/25 16:19:41;;;;;;;25.13;9.55;;;;;;;;;;4989308;28;20053;-57
2024/02/25 16:22:26;;;;;;;22.83;9.40;;;;;;;;;;4992289;28;20317;-57
2024/02/25 16:25:20;;;;;;;19.70;8.88;;;;;;;;;;4991384;28;20518;-64
2024/02/25 16:28:08;;;;;;;21.20;8.95;;;;;;;;;;4992520;28;20136;-65
2024/02/25 16:31:02;;;;;;;22.70;9.57;;;;;;;;;;4990605;28;20094;-64
2024/02/25 16:33:50;;;;;;;18.02;10.00;;;;;;;;;;4989889;28;20325;-66
2024/02/25 16:36:44;;;;;;;19.65;9.63;;;;;;;;;;4987810;28;20111;-66
2024/02/25 16:39:31;;;;;;;21.30;9.63;;;;;;;;;;4990774;28;20054;-64
2024/02/25 16:42:24;;;;;;;20.85;10.10;;;;;;;;;;4991435;28;20058;-55
2024/02/25 16:45:11;;;;;;;21.48;11.15;;;;;;;;;;4990841;28;20062;-46
2024/02/25 16:48:06;;;;;;;23.52;10.73;;;;;;;;;;4996603;28;20062;-49
2024/02/25 16:50:53;;;;;;;24.55;11.13;;;;;;;;;;4991640;28;20541;-51
2024/02/25 16:53:47;;;;;;;23.73;11.18;;;;;;;;;;4987512;28;20573;-50